Terminal Aerodrome Forecast
Issued by NWS Wichita, KS

Home | Current Version | Previous Version | Graphics & Text | Print | Product List | Glossary On
Versions: 1 2 3 4 5 6 7 8 9 10 11 12 13 14 15 16 17 18 19 20 21 22 23 24
000
FTUS43 KICT 261854 AAA
TAFICT
TAF AMD
KICT 261854Z 2619/2718 09009KT P6SM SCT009 BKN120
     FM262100 11010KT P6SM SCT035 BKN250
     FM262300 11014KT P6SM VCTS SCT035 BKN050CB
     FM270100 06015KT P6SM VCTS SCT015 BKN030CB
     FM270600 02015KT P6SM VCSH SCT009 BKN015
     FM271400 01014KT P6SM SCT015 BKN080
     FM271700 01015KT P6SM SCT025=

USA.gov is the U.S. government's official web portal to all federal, state and local government web resources and services.